Time;durP1;ratioP1;P1;durP2;ratioP2;P2;SDS_P1;SDS_P2;PMS_P1;PMS_P2;Temp;Humidity;BMP_temperature;BMP_pressure;BME280_temperature;BME280_humidity;BME280_pressure;Samples;Min_cycle;Max_cycle;Signal;HPM_P1;HPM_P2
2022/06/19 00:01:06;;;;;;;3.33;3.03;;;19.60;70.00;;;;;;5034673;28;20064;-58
2022/06/19 00:03:54;;;;;;;3.53;3.22;;;19.60;70.00;;;;;;5033650;28;20032;-58
2022/06/19 00:06:21;;;;;;;3.78;3.33;;;19.50;69.90;;;;;;5030434;28;20079;-58
2022/06/19 00:08:48;;;;;;;3.40;3.05;;;19.50;70.10;;;;;;5020719;28;20037;-58
2022/06/19 00:11:16;;;;;;;3.60;3.30;;;19.50;70.10;;;;;;5031841;28;20075;-58
2022/06/19 00:13:42;;;;;;;4.03;3.63;;;19.50;70.10;;;;;;5028306;28;20033;-58
2022/06/19 00:16:08;;;;;;;4.20;3.22;;;19.50;70.20;;;;;;5034935;28;20030;-58
2022/06/19 00:18:38;;;;;;;3.35;3.05;;;19.50;70.20;;;;;;5035017;28;20067;-58
2022/06/19 00:21:08;;;;;;;3.70;3.40;;;19.50;70.30;;;;;;5021067;28;20108;-58
2022/06/19 00:23:34;;;;;;;3.45;3.15;;;19.50;70.30;;;;;;5028234;28;20057;-58
2022/06/19 00:26:00;;;;;;;3.70;3.40;;;19.50;70.40;;;;;;5023442;28;20018;-56
2022/06/19 00:28:26;;;;;;;3.78;3.47;;;19.50;70.40;;;;;;5034379;28;20055;-57
2022/06/19 00:30:52;;;;;;;3.80;3.10;;;19.40;70.40;;;;;;5034767;28;20108;-58
2022/06/19 00:33:19;;;;;;;3.53;3.22;;;19.50;70.50;;;;;;5034409;28;20503;-57
2022/06/19 00:35:45;;;;;;;4.03;3.63;;;19.50;70.50;;;;;;5034563;28;20030;-57
2022/06/19 00:38:11;;;;;;;3.40;3.10;;;19.50;70.50;;;;;;5027605;28;20455;-58
2022/06/19 00:40:38;;;;;;;4.28;3.08;;;19.50;70.50;;;;;;5025393;28;20088;-58
2022/06/19 00:43:04;;;;;;;5.05;3.88;;;19.40;70.50;;;;;;5031918;28;20030;-58
2022/06/19 00:45:37;;;;;;;4.43;3.60;;;19.50;70.50;;;;;;5033783;28;20489;-58
2022/06/19 00:48:19;;;;;;;4.30;3.40;;;19.50;70.60;;;;;;5031682;28;20042;-58
2022/06/19 00:50:46;;;;;;;4.20;3.80;;;19.50;70.50;;;;;;5033617;28;20036;-58
2022/06/19 00:53:17;;;;;;;4.15;3.75;;;19.50;70.50;;;;;;5024076;28;20029;-58
2022/06/19 00:55:46;;;;;;;3.75;3.45;;;19.50;70.50;;;;;;5026863;28;20036;-58
2022/06/19 00:58:19;;;;;;;3.90;3.50;;;19.50;70.50;;;;;;5033588;28;20072;-58
2022/06/19 01:00:53;;;;;;;3.78;3.47;;;19.50;70.40;;;;;;5033924;28;20037;-58
2022/06/19 01:03:23;;;;;;;3.30;3.00;;;19.50;70.40;;;;;;5034052;28;20116;-57
2022/06/19 01:05:50;;;;;;;3.87;3.53;;;19.50;70.30;;;;;;5034353;28;20026;-57
2022/06/19 01:08:16;;;;;;;4.53;3.40;;;19.50;70.20;;;;;;5027846;28;20021;-58
2022/06/19 01:10:46;;;;;;;3.80;3.40;;;19.50;70.10;;;;;;5020090;28;20013;-58
2022/06/19 01:13:15;;;;;;;3.63;3.25;;;19.40;70.10;;;;;;5028332;28;20116;-57
2022/06/19 01:15:41;;;;;;;4.00;3.47;;;19.40;70.10;;;;;;5032715;28;20022;-58
2022/06/19 01:18:09;;;;;;;4.03;3.60;;;19.40;70.00;;;;;;5032397;28;20511;-58
2022/06/19 01:20:36;;;;;;;4.65;3.55;;;19.40;70.00;;;;;;5033647;28;20405;-57
2022/06/19 01:23:15;;;;;;;3.85;3.45;;;19.40;70.00;;;;;;5027003;28;20382;-57
2022/06/19 01:25:42;;;;;;;4.10;3.70;;;19.40;70.00;;;;;;5026940;28;20164;-58
2022/06/19 01:31:06;;;;;;;3.67;3.33;;;19.30;70.10;;;;;;5033289;28;20032;-58
2022/06/19 01:33:37;;;;;;;4.32;3.92;;;19.30;70.20;;;;;;5030163;28;20025;-58
2022/06/19 01:36:03;;;;;;;;;;;19.30;70.40;;;;;;5033879;28;20126;-57
2022/06/19 01:38:32;;;;;;;4.18;3.78;;;19.20;70.40;;;;;;5020668;28;19917;-58
2022/06/19 01:41:04;;;;;;;4.53;3.95;;;19.30;70.60;;;;;;5019850;28;20022;-58
2022/06/19 01:43:29;;;;;;;5.53;4.55;;;19.20;70.80;;;;;;5030488;28;20500;-58
2022/06/19 01:45:56;;;;;;;5.53;4.50;;;19.20;71.00;;;;;;5033176;28;20021;-58
2022/06/19 01:48:27;;;;;;;4.40;4.00;;;19.20;71.10;;;;;;5031981;28;20413;-58
2022/06/19 01:50:54;;;;;;;;;;;19.20;71.40;;;;;;5033189;28;20037;-57
2022/06/19 01:53:22;;;;;;;4.95;4.45;;;19.20;71.20;;;;;;5028628;28;19909;-58
2022/06/19 01:55:49;;;;;;;4.90;4.43;;;19.20;71.40;;;;;;5017414;28;20037;-58
2022/06/19 01:58:16;;;;;;;4.90;4.38;;;19.20;71.40;;;;;;5022980;28;20496;-58
2022/06/19 02:00:43;;;;;;;5.10;4.60;;;19.30;72.30;;;;;;5033033;28;20082;-58
2022/06/19 02:03:27;;;;;;;5.30;4.80;;;19.30;71.70;;;;;;5026184;28;20509;-58
2022/06/19 02:05:54;;;;;;;4.75;4.10;;;19.30;71.80;;;;;;5017861;28;20081;-58
2022/06/19 02:08:19;;;;;;;5.43;4.35;;;19.30;71.90;;;;;;5019319;28;20036;-58
2022/06/19 02:10:47;;;;;;;4.80;4.32;;;19.30;72.00;;;;;;5026457;28;20100;-58
2022/06/19 02:13:16;;;;;;;5.45;4.95;;;19.20;72.00;;;;;;5030782;28;20116;-57
2022/06/19 02:15:45;;;;;;;5.20;4.70;;;19.30;72.30;;;;;;5021540;28;20061;-58
2022/06/19 02:18:17;;;;;;;5.70;4.75;;;19.20;72.30;;;;;;5032246;28;20080;-58
2022/06/19 02:20:43;;;;;;;6.13;4.30;;;19.30;72.40;;;;;;5032818;28;20044;-58
2022/06/19 02:23:08;;;;;;;4.50;4.07;;;19.30;72.40;;;;;;5026315;28;20018;-58
2022/06/19 02:25:39;;;;;;;6.78;4.72;;;19.30;72.50;;;;;;5015599;28;20052;-58
2022/06/19 02:28:05;;;;;;;6.22;4.93;;;19.30;72.60;;;;;;5026941;28;20018;-58
2022/06/19 02:30:31;;;;;;;5.10;4.60;;;19.20;72.60;;;;;;5017536;28;20494;-58
2022/06/19 02:32:57;;;;;;;5.35;4.85;;;19.30;72.60;;;;;;5032212;28;20104;-58
2022/06/19 02:35:24;;;;;;;4.43;3.97;;;19.30;72.70;;;;;;5032767;28;20098;-58
2022/06/19 02:37:55;;;;;;;5.25;4.75;;;19.30;72.70;;;;;;5030272;28;20033;-58
2022/06/19 02:40:39;;;;;;;5.22;4.70;;;19.40;72.70;;;;;;5018391;28;20026;-58
2022/06/19 02:43:18;;;;;;;5.20;4.70;;;19.40;72.60;;;;;;5019781;28;20026;-58
2022/06/19 02:45:44;;;;;;;4.95;4.50;;;19.40;72.60;;;;;;5024650;28;20101;-58
2022/06/19 02:48:20;;;;;;;4.85;4.35;;;19.50;72.80;;;;;;5031680;28;20500;-58
2022/06/19 02:50:46;;;;;;;4.45;4.05;;;19.50;72.60;;;;;;5032655;28;20026;-58
2022/06/19 02:53:12;;;;;;;4.70;4.25;;;19.60;72.50;;;;;;5032910;28;20026;-58
2022/06/19 02:55:38;;;;;;;5.13;4.28;;;19.60;73.10;;;;;;5036356;28;20101;-58
2022/06/19 02:58:04;;;;;;;4.25;3.85;;;19.70;73.00;;;;;;5030922;28;20366;-58
2022/06/19 03:00:30;;;;;;;5.00;4.50;;;19.70;72.20;;;;;;5036118;28;20105;-58
2022/06/19 03:03:08;;;;;;;4.63;4.18;;;19.70;72.10;;;;;;5034418;28;20452;-57
2022/06/19 03:05:34;;;;;;;4.35;3.95;;;19.80;72.00;;;;;;5036019;28;20021;-58
2022/06/19 03:08:00;;;;;;;4.88;4.38;;;19.80;72.00;;;;;;5028346;28;20044;-57
2022/06/19 03:10:26;;;;;;;5.45;4.72;;;19.80;71.80;;;;;;5017911;28;20498;-58
2022/06/19 03:12:52;;;;;;;5.00;4.50;;;19.80;71.90;;;;;;5030876;28;20120;-58
2022/06/19 03:15:18;;;;;;;4.25;3.85;;;19.90;71.70;;;;;;5033882;28;20110;-58
2022/06/19 03:17:44;;;;;;;4.40;4.00;;;19.90;71.60;;;;;;5033968;28;20045;-58
2022/06/19 03:20:18;;;;;;;5.20;4.47;;;19.90;71.60;;;;;;5034116;28;20032;-58
2022/06/19 03:22:44;;;;;;;4.47;3.80;;;20.00;71.50;;;;;;5031876;28;20722;-58
2022/06/19 03:25:10;;;;;;;4.85;3.92;;;20.00;71.50;;;;;;5017002;28;20107;-58
2022/06/19 03:27:35;;;;;;;4.28;3.83;;;20.10;71.30;;;;;;5035970;28;20025;-58
2022/06/19 03:30:01;;;;;;;4.28;3.88;;;20.10;71.30;;;;;;5040282;28;20026;-58
2022/06/19 03:32:27;;;;;;;5.57;3.88;;;20.20;71.50;;;;;;5026377;28;20185;-58
2022/06/19 03:34:53;;;;;;;4.50;3.88;;;20.40;72.10;;;;;;5023365;28;20112;-58
2022/06/19 03:37:19;;;;;;;4.13;3.58;;;20.70;72.70;;;;;;5030039;28;20136;-58
2022/06/19 03:39:44;;;;;;;3.55;3.25;;;21.20;72.90;;;;;;5017093;28;20025;-58
2022/06/19 03:42:11;;;;;;;3.95;3.55;;;21.90;72.30;;;;;;5029978;28;20032;-58
2022/06/19 03:44:37;;;;;;;3.35;3.05;;;22.70;71.00;;;;;;5034900;28;20040;-58
2022/06/19 03:47:04;;;;;;;3.63;3.30;;;23.50;69.40;;;;;;5034798;28;20494;-58
2022/06/19 03:49:30;;;;;;;3.25;2.95;;;24.40;68.20;;;;;;5031750;28;20065;-58
2022/06/19 03:51:56;;;;;;;3.38;3.08;;;25.40;66.40;;;;;;5034725;28;20044;-58
2022/06/19 03:54:22;;;;;;;3.40;3.10;;;26.40;64.60;;;;;;5021314;28;20025;-58
2022/06/19 03:56:47;;;;;;;3.00;2.80;;;27.50;62.80;;;;;;5034600;28;20021;-58
2022/06/19 03:59:13;;;;;;;3.00;2.80;;;28.40;61.50;;;;;;5034689;28;20022;-58
2022/06/19 04:01:40;;;;;;;3.40;3.00;;;29.20;60.00;;;;;;5034285;28;20026;-58
2022/06/19 04:04:07;;;;;;;3.25;2.95;;;30.10;58.60;;;;;;5034088;28;20029;-58
2022/06/19 04:06:35;;;;;;;3.40;3.10;;;30.90;57.30;;;;;;5026858;28;20026;-58
2022/06/19 04:09:04;;;;;;;3.50;3.20;;;31.70;55.70;;;;;;5024309;28;20025;-58
2022/06/19 04:11:31;;;;;;;3.80;3.28;;;32.50;54.40;;;;;;5027353;28;20498;-58
2022/06/19 04:13:57;;;;;;;2.80;2.58;;;33.20;53.60;;;;;;5027088;28;20395;-58
2022/06/19 04:16:31;;;;;;;2.75;2.55;;;33.90;52.70;;;;;;5034964;28;20030;-58
2022/06/19 04:18:59;;;;;;;2.78;2.58;;;34.60;51.50;;;;;;5030124;28;20022;-59
2022/06/19 04:21:30;;;;;;;2.83;2.63;;;35.20;50.70;;;;;;5034325;28;20032;-58
2022/06/19 04:23:58;;;;;;;3.05;2.75;;;35.80;49.50;;;;;;5019070;28;20029;-59
2022/06/19 04:26:26;;;;;;;2.53;2.33;;;36.20;48.70;;;;;;5025346;28;20041;-59
2022/06/19 04:28:51;;;;;;;2.67;2.47;;;36.70;48.20;;;;;;5029737;28;20465;-58
2022/06/19 04:31:17;;;;;;;2.63;2.42;;;37.10;47.50;;;;;;5034436;28;20034;-59
2022/06/19 04:33:43;;;;;;;2.70;2.50;;;37.30;46.60;;;;;;5034069;28;20033;-59
2022/06/19 04:36:15;;;;;;;3.22;2.88;;;37.70;46.30;;;;;;5034327;28;20032;-59
2022/06/19 04:38:43;;;;;;;2.70;2.47;;;38.00;45.70;;;;;;5026415;28;20478;-57
2022/06/19 04:41:18;;;;;;;2.72;2.53;;;38.20;45.00;;;;;;5028569;28;20529;-56
2022/06/19 04:43:44;;;;;;;2.35;2.15;;;38.50;44.80;;;;;;5032630;28;20610;-57
2022/06/19 04:46:10;;;;;;;2.65;2.45;;;38.80;44.60;;;;;;5033947;28;20022;-56
2022/06/19 04:48:37;;;;;;;3.00;2.70;;;39.10;44.10;;;;;;5033704;28;20057;-56
2022/06/19 04:51:03;;;;;;;2.63;2.42;;;39.20;43.80;;;;;;5033466;28;20041;-55
2022/06/19 04:53:29;;;;;;;2.75;2.55;;;39.40;43.60;;;;;;5032620;28;20056;-57
2022/06/19 04:55:55;;;;;;;2.80;2.60;;;39.50;43.30;;;;;;5031028;28;20025;-57
2022/06/19 04:58:22;;;;;;;2.72;2.53;;;39.60;42.80;;;;;;5026338;28;20034;-56
2022/06/19 05:00:49;;;;;;;2.33;2.15;;;39.80;42.70;;;;;;5032214;28;20053;-56
2022/06/19 05:03:15;;;;;;;2.45;2.30;;;39.90;42.30;;;;;;5027462;28;20382;-56
2022/06/19 05:05:41;;;;;;;2.58;2.38;;;40.00;42.20;;;;;;5029783;28;20466;-56
2022/06/19 05:08:07;;;;;;;2.80;2.60;;;40.10;42.00;;;;;;5025313;28;20032;-56
2022/06/19 05:10:32;;;;;;;2.28;2.08;;;40.20;41.90;;;;;;5028104;28;20048;-56
2022/06/19 05:12:58;;;;;;;2.30;2.10;;;40.20;41.80;;;;;;5028251;28;20079;-56
2022/06/19 05:15:24;;;;;;;1.92;1.83;;;40.30;41.70;;;;;;5032783;28;20029;-56
2022/06/19 05:17:50;;;;;;;2.20;2.00;;;40.30;41.30;;;;;;5030548;28;20112;-56
2022/06/19 05:20:16;;;;;;;2.20;2.00;;;40.20;40.60;;;;;;5033623;28;20032;-56
2022/06/19 05:22:42;;;;;;;2.30;2.10;;;40.00;40.30;;;;;;5032234;28;20069;-57
2022/06/19 05:25:11;;;;;;;2.60;2.40;;;39.60;40.10;;;;;;5033661;28;20029;-56
2022/06/19 05:27:38;;;;;;;2.40;2.20;;;38.90;40.30;;;;;;5033525;28;20028;-56
2022/06/19 05:30:06;;;;;;;2.50;2.30;;;38.00;40.80;;;;;;5029382;28;20087;-54
2022/06/19 05:32:32;;;;;;;2.88;2.63;;;37.00;41.30;;;;;;5019454;28;20025;-56
2022/06/19 05:34:58;;;;;;;2.50;2.30;;;36.00;42.10;;;;;;5023178;28;20363;-58
2022/06/19 05:37:25;;;;;;;2.60;2.40;;;35.00;42.90;;;;;;5029711;28;20032;-58
2022/06/19 05:39:51;;;;;;;3.30;2.78;;;34.10;43.80;;;;;;5023090;28;20160;-58
2022/06/19 05:42:17;;;;;;;3.20;2.90;;;33.30;44.60;;;;;;5031577;28;20489;-58
2022/06/19 05:44:43;;;;;;;2.53;2.33;;;32.60;45.40;;;;;;5033040;28;20417;-58
2022/06/19 05:47:09;;;;;;;3.08;2.83;;;31.90;45.90;;;;;;5028567;28;20049;-58
2022/06/19 05:49:34;;;;;;;2.70;2.50;;;31.30;46.70;;;;;;5028419;28;20424;-58
2022/06/19 05:52:14;;;;;;;3.33;2.97;;;30.80;47.30;;;;;;5031762;28;20025;-56
2022/06/19 05:54:40;;;;;;;3.15;2.90;;;30.40;47.90;;;;;;5028974;28;20045;-58
2022/06/19 05:57:05;;;;;;;3.05;2.85;;;30.00;48.20;;;;;;5032449;28;20111;-58
2022/06/19 05:59:31;;;;;;;2.95;2.72;;;29.70;48.60;;;;;;5032278;28;20065;-58
2022/06/19 06:01:57;;;;;;;2.72;2.53;;;29.40;49.00;;;;;;5031490;28;20033;-58
2022/06/19 06:04:23;;;;;;;2.95;2.75;;;29.20;49.30;;;;;;5031061;28;20053;-58
2022/06/19 06:06:49;;;;;;;2.90;2.70;;;29.00;49.80;;;;;;5031225;28;20041;-58
2022/06/19 06:09:15;;;;;;;2.80;2.60;;;28.80;50.00;;;;;;5020048;28;20033;-58
2022/06/19 06:11:41;;;;;;;3.35;3.05;;;28.70;50.10;;;;;;5023432;28;20077;-58
2022/06/19 06:14:06;;;;;;;3.15;2.85;;;28.50;50.40;;;;;;5019141;28;20482;-58
2022/06/19 06:16:32;;;;;;;2.80;2.60;;;28.40;50.80;;;;;;5032850;28;20438;-58
2022/06/19 06:18:58;;;;;;;2.97;2.65;;;28.20;50.80;;;;;;5032349;28;20026;-58
2022/06/19 06:21:24;;;;;;;2.60;2.40;;;28.10;50.90;;;;;;5026217;28;20120;-58
2022/06/19 06:23:52;;;;;;;2.53;2.33;;;28.00;50.70;;;;;;5024881;28;20100;-58
2022/06/19 06:26:27;;;;;;;2.70;2.50;;;27.90;50.70;;;;;;5033082;28;20017;-58
2022/06/19 06:28:55;;;;;;;2.58;2.38;;;27.80;50.70;;;;;;5036607;28;20087;-58
2022/06/19 06:31:21;;;;;;;2.50;2.30;;;27.70;50.50;;;;;;5039474;28;20159;-58
2022/06/19 06:33:48;;;;;;;2.78;2.50;;;27.60;50.60;;;;;;5036345;28;20065;-58
2022/06/19 06:36:14;;;;;;;2.65;2.45;;;27.50;50.50;;;;;;5032418;28;20026;-58
2022/06/19 06:38:40;;;;;;;2.80;2.60;;;27.50;50.50;;;;;;5028123;28;20036;-58
2022/06/19 06:41:08;;;;;;;2.28;2.17;;;27.40;50.40;;;;;;5029225;28;20028;-58
2022/06/19 06:43:42;;;;;;;3.42;3.13;;;27.40;50.70;;;;;;5036380;28;20029;-56
2022/06/19 06:46:12;;;;;;;2.97;2.78;;;27.40;50.80;;;;;;5036445;28;20551;-58
2022/06/19 06:48:38;;;;;;;2.90;2.70;;;27.30;51.10;;;;;;5036573;28;20096;-58
2022/06/19 06:51:06;;;;;;;2.78;2.58;;;27.30;51.70;;;;;;5022788;28;20037;-58
2022/06/19 06:53:32;;;;;;;3.33;2.50;;;27.20;50.90;;;;;;5026365;28;20061;-58
2022/06/19 06:55:57;;;;;;;2.85;2.60;;;27.20;50.90;;;;;;5023572;28;20036;-58
2022/06/19 06:58:23;;;;;;;2.67;2.47;;;27.20;50.70;;;;;;5035938;28;20068;-58
2022/06/19 07:00:48;;;;;;;2.35;2.15;;;27.20;50.60;;;;;;5034882;28;20053;-58
2022/06/19 07:03:14;;;;;;;2.50;2.30;;;27.10;50.40;;;;;;5028350;28;20026;-58
2022/06/19 07:05:40;;;;;;;2.58;2.38;;;27.10;50.40;;;;;;5028330;28;20018;-57
2022/06/19 07:08:05;;;;;;;2.72;2.53;;;27.10;50.50;;;;;;5035737;28;20101;-58
2022/06/19 07:10:31;;;;;;;1.85;1.75;;;27.10;50.60;;;;;;5024021;28;20061;-58
2022/06/19 07:12:57;;;;;;;2.15;2.05;;;27.00;50.50;;;;;;5032822;28;20064;-58
2022/06/19 07:15:24;;;;;;;2.30;2.08;;;27.00;50.40;;;;;;5017239;28;20042;-58
2022/06/19 07:17:50;;;;;;;2.50;2.22;;;27.10;50.40;;;;;;5043035;28;20477;-57
2022/06/19 07:20:16;;;;;;;2.50;2.30;;;27.00;50.30;;;;;;5040573;28;20417;-58
2022/06/19 07:22:42;;;;;;;2.55;2.30;;;27.10;50.50;;;;;;5031745;28;20029;-58
2022/06/19 07:25:10;;;;;;;2.50;2.30;;;27.00;50.50;;;;;;5046908;28;20025;-58
2022/06/19 07:27:36;;;;;;;2.80;2.60;;;27.00;50.30;;;;;;5040056;28;20029;-58
2022/06/19 07:30:02;;;;;;;2.50;2.30;;;27.00;50.30;;;;;;5035497;28;20040;-57
2022/06/19 07:32:27;;;;;;;2.10;2.00;;;27.10;50.50;;;;;;5035547;28;20052;-58
2022/06/19 07:34:53;;;;;;;1.80;1.70;;;27.00;50.00;;;;;;5038563;28;20032;-58
2022/06/19 07:37:19;;;;;;;2.13;2.03;;;27.10;49.30;;;;;;5042271;28;20428;-56
2022/06/19 07:39:45;;;;;;;1.77;1.67;;;27.00;48.50;;;;;;5031073;28;20109;-58
2022/06/19 07:42:10;;;;;;;1.90;1.65;;;27.00;47.90;;;;;;5034057;28;20545;-58
2022/06/19 07:44:37;;;;;;;2.67;2.10;;;27.10;48.00;;;;;;5041012;28;20029;-58
2022/06/19 07:52:33;;;;;;;1.80;1.70;;;27.00;47.20;;;;;;5037952;28;20032;-58
2022/06/19 07:54:59;;;;;;;1.70;1.60;;;27.00;47.00;;;;;;5042894;28;20100;-58
2022/06/19 07:57:26;;;;;;;2.20;2.03;;;27.10;46.90;;;;;;5032798;28;20060;-58
2022/06/19 07:59:52;;;;;;;2.10;2.00;;;27.10;47.00;;;;;;5040298;28;20041;-58
2022/06/19 08:02:18;;;;;;;1.80;1.70;;;27.10;46.70;;;;;;5033850;28;20401;-58
2022/06/19 08:04:44;;;;;;;1.63;1.52;;;27.00;46.00;;;;;;5028915;28;20021;-58
2022/06/19 08:07:14;;;;;;;1.73;1.63;;;27.00;46.10;;;;;;5027666;28;20028;-58
2022/06/19 08:09:41;;;;;;;1.50;1.50;;;26.90;46.00;;;;;;5031715;28;20527;-58
2022/06/19 08:12:08;;;;;;;1.60;1.50;;;26.90;45.90;;;;;;5039231;28;20061;-58
2022/06/19 08:14:34;;;;;;;1.65;1.55;;;26.90;45.40;;;;;;5039342;28;20029;-58
2022/06/19 08:17:00;;;;;;;1.65;1.55;;;26.90;45.10;;;;;;5042879;28;20080;-57
2022/06/19 08:19:26;;;;;;;1.70;1.60;;;26.90;45.00;;;;;;5033184;28;20086;-58
2022/06/19 08:21:51;;;;;;;1.20;1.20;;;26.90;44.60;;;;;;5033062;28;20083;-58
2022/06/19 08:24:17;;;;;;;1.85;1.73;;;26.90;44.20;;;;;;5033385;28;20029;-58
2022/06/19 08:26:43;;;;;;;1.80;1.70;;;26.90;43.90;;;;;;5033092;28;20036;-58
2022/06/19 08:29:09;;;;;;;3.80;3.22;;;26.90;43.40;;;;;;5033710;28;20527;-58
2022/06/19 08:31:35;;;;;;;2.92;2.67;;;26.80;43.50;;;;;;5034448;28;20104;-58
2022/06/19 08:34:01;;;;;;;2.53;2.33;;;26.80;43.50;;;;;;5033361;28;20037;-58
2022/06/19 08:36:27;;;;;;;2.67;2.45;;;26.80;43.60;;;;;;5034206;28;20052;-58
2022/06/19 08:38:56;;;;;;;1.88;1.77;;;26.90;43.90;;;;;;5032151;28;20025;-58
2022/06/19 08:42:04;;;;;;;1.80;1.70;;;26.80;43.90;;;;;;5020669;28;20036;-58
2022/06/19 08:44:51;;;;;;;1.77;1.67;;;26.80;43.70;;;;;;5033894;28;20448;-58
2022/06/19 08:47:45;;;;;;;2.10;1.90;;;26.70;44.00;;;;;;5033188;28;20045;-58
2022/06/19 08:50:29;;;;;;;2.20;2.10;;;26.60;44.10;;;;;;5032459;28;20481;-58
2022/06/19 08:53:16;;;;;;;1.90;1.80;;;26.60;44.50;;;;;;5033799;28;20392;-57
2022/06/19 08:56:01;;;;;;;1.70;1.60;;;26.60;44.50;;;;;;5019710;28;20030;-58
2022/06/19 08:58:33;;;;;;;1.92;1.73;;;26.60;44.50;;;;;;5028347;28;20021;-58
2022/06/19 09:01:08;;;;;;;2.50;2.30;;;26.50;44.30;;;;;;5033591;28;20036;-57
2022/06/19 09:07:02;;;;;;;2.13;1.90;;;26.40;44.10;;;;;;5026539;28;20098;-58
2022/06/19 09:09:55;;;;;;;2.30;2.10;;;26.30;43.80;;;;;;5025913;28;20802;-58
2022/06/19 09:13:11;;;;;;;1.60;1.50;;;26.30;43.80;;;;;;5027281;28;20029;-58
2022/06/19 09:16:00;;;;;;;1.90;1.80;;;26.20;44.10;;;;;;5020347;28;20030;-58
2022/06/19 09:18:51;;;;;;;1.52;1.52;;;26.20;44.00;;;;;;5023030;28;20044;-58
2022/06/19 09:21:44;;;;;;;1.55;1.50;;;26.20;44.20;;;;;;5033323;28;20071;-58
2022/06/19 09:24:15;;;;;;;1.80;1.70;;;26.10;44.40;;;;;;5031635;28;20412;-58
2022/06/19 09:26:55;;;;;;;1.80;1.70;;;26.10;44.40;;;;;;5019272;28;20385;-58
2022/06/19 09:29:27;;;;;;;2.23;2.03;;;26.10;44.40;;;;;;5031615;28;20034;-58
2022/06/19 09:32:13;;;;;;;1.92;1.75;;;26.10;44.50;;;;;;5031908;28;20251;-58
2022/06/19 09:34:48;;;;;;;1.88;1.77;;;26.00;44.30;;;;;;5030611;28;20454;-58
2022/06/19 09:37:19;;;;;;;4.25;3.33;;;26.00;44.60;;;;;;5027200;28;20029;-58
2022/06/19 09:40:03;;;;;;;2.13;1.92;;;26.00;44.70;;;;;;5014633;28;20163;-58
2022/06/19 09:42:31;;;;;;;1.60;1.50;;;26.00;44.90;;;;;;5024782;28;20068;-58
2022/06/19 09:45:11;;;;;;;1.70;1.60;;;25.90;44.70;;;;;;5032014;28;20026;-58
2022/06/19 09:47:46;;;;;;;1.80;1.70;;;25.90;45.00;;;;;;5032446;28;20057;-58
2022/06/19 09:50:30;;;;;;;1.70;1.60;;;25.90;45.30;;;;;;5032373;28;20382;-58
2022/06/19 09:53:04;;;;;;;1.73;1.63;;;25.90;46.20;;;;;;5032666;28;20026;-58
2022/06/19 09:55:39;;;;;;;1.90;1.80;;;25.80;45.60;;;;;;5020041;28;20057;-58
2022/06/19 09:58:25;;;;;;;1.63;1.52;;;25.80;45.80;;;;;;5023977;28;20045;-58
2022/06/19 10:00:57;;;;;;;1.52;1.30;;;25.80;45.80;;;;;;5031507;28;20079;-58
2022/06/19 10:03:35;;;;;;;1.83;1.73;;;25.80;45.30;;;;;;5027687;28;20060;-57
2022/06/19 10:06:08;;;;;;;2.50;2.30;;;25.80;45.40;;;;;;5030038;28;20104;-58
2022/06/19 10:08:59;;;;;;;1.52;1.42;;;25.70;45.60;;;;;;5030479;28;20030;-58
2022/06/19 10:11:28;;;;;;;;;;;25.70;45.10;;;;;;5029982;28;20078;-57
2022/06/19 10:14:04;;;;;;;1.45;1.35;;;25.70;45.50;;;;;;5030775;28;19983;-58
2022/06/19 10:16:47;;;;;;;1.63;1.52;;;25.70;45.80;;;;;;5030456;28;20034;-58
2022/06/19 10:19:31;;;;;;;1.75;1.63;;;25.70;45.90;;;;;;5031117;28;20033;-57
2022/06/19 10:22:16;;;;;;;1.63;1.52;;;25.70;46.00;;;;;;5032609;28;20044;-57
2022/06/19 10:25:01;;;;;;;1.42;1.40;;;25.70;46.00;;;;;;5024836;28;20478;-57
2022/06/19 10:27:52;;;;;;;1.80;1.70;;;25.70;45.80;;;;;;5017227;28;20151;-57
2022/06/19 10:30:43;;;;;;;1.65;1.55;;;25.70;45.60;;;;;;5025933;28;20029;-57
2022/06/19 10:33:24;;;;;;;1.30;1.20;;;25.70;45.00;;;;;;5028475;28;20382;-56
2022/06/19 10:36:01;;;;;;;;;;;25.70;45.40;;;;;;5029901;28;20652;-57
2022/06/19 10:39:04;;;;;;;2.47;2.20;;;25.60;44.10;;;;;;5032183;28;19909;-57
2022/06/19 10:44:59;;;;;;;1.55;1.45;;;25.60;44.80;;;;;;5032562;28;20127;-57
2022/06/19 10:47:31;;;;;;;1.90;1.80;;;25.60;44.90;;;;;;5032133;28;20570;-58
2022/06/19 10:50:02;;;;;;;1.60;1.50;;;25.70;45.50;;;;;;5031249;28;20071;-56
2022/06/19 10:52:37;;;;;;;1.20;1.20;;;25.70;45.50;;;;;;5032311;28;20104;-57
2022/06/19 10:55:20;;;;;;;1.55;1.45;;;25.70;45.50;;;;;;5029253;28;20036;-57
2022/06/19 10:58:13;;;;;;;2.38;1.83;;;25.70;45.40;;;;;;5018607;28;20113;-57
2022/06/19 11:00:39;;;;;;;1.70;1.60;;;25.70;45.20;;;;;;5032310;28;20048;-58
2022/06/19 11:06:41;;;;;;;1.55;1.45;;;25.80;46.00;;;;;;5012327;28;20049;-56
2022/06/19 11:09:13;;;;;;;1.38;1.33;;;25.80;46.10;;;;;;5029580;28;20029;-57
2022/06/19 11:11:42;;;;;;;1.27;1.23;;;25.80;46.10;;;;;;5018393;28;20379;-57
2022/06/19 11:14:32;;;;;;;1.35;1.35;;;25.80;45.80;;;;;;5031608;28;20029;-57
2022/06/19 11:17:07;;;;;;;3.47;1.48;;;25.80;45.30;;;;;;5026300;28;20061;-57
2022/06/19 11:19:38;;;;;;;2.28;1.55;;;25.80;45.20;;;;;;5034901;28;20067;-57
2022/06/19 11:22:26;;;;;;;1.52;1.42;;;25.80;45.20;;;;;;5031437;28;20037;-57
2022/06/19 11:24:55;;;;;;;1.80;1.70;;;25.80;45.30;;;;;;5025879;28;20041;-57
2022/06/19 11:27:24;;;;;;;1.63;1.52;;;25.80;45.30;;;;;;5031821;28;20025;-57
2022/06/19 11:29:53;;;;;;;1.92;1.83;;;25.80;45.20;;;;;;5029577;28;20021;-57
2022/06/19 11:32:22;;;;;;;1.83;1.73;;;25.80;45.50;;;;;;5026626;28;20030;-57
2022/06/19 11:35:03;;;;;;;2.03;1.90;;;25.80;45.70;;;;;;5027085;28;20037;-57
2022/06/19 11:37:34;;;;;;;3.28;1.80;;;25.70;45.80;;;;;;5031123;28;20038;-57
2022/06/19 11:39:59;;;;;;;1.60;1.50;;;25.80;45.80;;;;;;5025403;28;20041;-57
2022/06/19 11:42:36;;;;;;;1.70;1.60;;;25.70;46.00;;;;;;5019293;28;20439;-56
2022/06/19 11:45:10;;;;;;;1.80;1.70;;;25.80;46.50;;;;;;5021720;28;20076;-55
2022/06/19 11:47:42;;;;;;;1.83;1.73;;;25.80;46.70;;;;;;5031057;28;20037;-57
2022/06/19 11:50:10;;;;;;;4.05;3.13;;;25.80;46.70;;;;;;5024020;28;20083;-57
2022/06/19 11:52:37;;;;;;;2.40;2.30;;;25.80;46.70;;;;;;5033448;28;20029;-57
2022/06/19 11:55:12;;;;;;;2.25;1.95;;;25.80;46.70;;;;;;5031483;28;20034;-57
2022/06/19 11:57:39;;;;;;;2.17;1.98;;;25.80;46.50;;;;;;5026608;28;20511;-57
2022/06/19 12:00:06;;;;;;;2.28;2.08;;;25.80;46.50;;;;;;5034273;28;20040;-56
2022/06/19 12:02:40;;;;;;;4.43;3.20;;;25.80;46.70;;;;;;5028653;28;20026;-56
2022/06/19 12:05:27;;;;;;;3.22;2.92;;;25.80;46.50;;;;;;5033919;28;20068;-57
2022/06/19 12:07:54;;;;;;;3.40;3.10;;;25.80;47.00;;;;;;5033781;28;20025;-57
2022/06/19 12:10:26;;;;;;;2.65;2.33;;;25.80;47.20;;;;;;5027858;28;20057;-57
2022/06/19 12:12:58;;;;;;;2.03;1.88;;;25.80;46.60;;;;;;5025639;28;20105;-57
2022/06/19 12:15:30;;;;;;;2.13;2.00;;;25.80;46.60;;;;;;5034366;28;20076;-57
2022/06/19 12:18:00;;;;;;;2.20;2.00;;;25.80;46.60;;;;;;5033449;28;20022;-57
2022/06/19 12:20:29;;;;;;;1.80;1.70;;;25.80;46.60;;;;;;5034168;28;20082;-57
2022/06/19 12:23:03;;;;;;;2.17;2.00;;;25.80;46.80;;;;;;5033887;28;20046;-57
2022/06/19 12:25:28;;;;;;;3.90;3.10;;;25.70;46.90;;;;;;5022740;28;20087;-57
2022/06/19 12:28:02;;;;;;;2.13;2.03;;;25.70;47.00;;;;;;5030152;28;20025;-57
2022/06/19 12:30:41;;;;;;;4.45;3.50;;;25.70;46.90;;;;;;5032648;28;20030;-57
2022/06/19 12:33:14;;;;;;;4.93;3.90;;;25.70;46.60;;;;;;5025531;28;20060;-57
2022/06/19 12:35:46;;;;;;;3.45;2.80;;;25.70;46.60;;;;;;5031109;28;20038;-57
2022/06/19 12:38:15;;;;;;;2.70;2.50;;;25.70;46.60;;;;;;5034071;28;20017;-57
2022/06/19 12:41:18;;;;;;;2.70;2.50;;;25.70;46.80;;;;;;5030863;28;20032;-57
2022/06/19 12:44:08;;;;;;;2.60;2.40;;;25.70;47.10;;;;;;5021150;28;20037;-57
2022/06/19 12:47:12;;;;;;;3.25;2.95;;;25.70;47.20;;;;;;5021582;28;20139;-57
2022/06/19 12:50:04;;;;;;;2.92;2.72;;;25.70;47.60;;;;;;5032691;28;20061;-57
2022/06/19 12:52:52;;;;;;;4.72;3.58;;;25.70;47.70;;;;;;5026367;28;20580;-57
2022/06/19 12:55:45;;;;;;;4.15;3.42;;;25.70;47.70;;;;;;5014478;28;20504;-57
2022/06/19 12:58:25;;;;;;;3.92;3.33;;;25.70;47.60;;;;;;5026811;28;20029;-57
2022/06/19 13:01:04;;;;;;;2.70;2.50;;;25.70;47.70;;;;;;5032099;28;21458;-57
2022/06/19 13:03:44;;;;;;;6.65;4.65;;;25.70;48.60;;;;;;5033445;28;20485;-57
2022/06/19 13:06:16;;;;;;;3.28;2.97;;;25.70;48.10;;;;;;5028133;28;20060;-57
2022/06/19 13:09:17;;;;;;;2.42;2.20;;;25.70;48.00;;;;;;5032976;28;20053;-57
2022/06/19 13:11:45;;;;;;;;;;;25.70;48.60;;;;;;5036634;28;20440;-57
2022/06/19 13:14:13;;;;;;;2.00;1.90;;;25.70;48.20;;;;;;5020363;28;19949;-56
2022/06/19 13:16:39;;;;;;;1.92;1.83;;;25.70;48.30;;;;;;5033822;28;20136;-57
2022/06/19 13:19:29;;;;;;;2.28;2.10;;;25.70;48.60;;;;;;5026748;28;20086;-56
2022/06/19 13:22:20;;;;;;;1.88;1.77;;;25.70;48.60;;;;;;5022897;28;20710;-57
2022/06/19 13:24:58;;;;;;;1.90;1.80;;;25.70;48.60;;;;;;5029218;28;20032;-57
2022/06/19 13:27:36;;;;;;;2.20;2.00;;;25.70;49.00;;;;;;5017762;28;20104;-57